sensor_id;sensor_type;location;lat;lon;timestamp;pressure;altitude;pressure_sealevel;temperature;humidity
50636;BME280;36598;46.054;11.130;2023-04-06T00:01:35;99442.41;;;7.95;44.20
50636;BME280;36598;46.054;11.130;2023-04-06T00:04:01;99443.94;;;7.75;43.64
50636;BME280;36598;46.054;11.130;2023-04-06T00:06:26;99451.06;;;7.76;43.43
50636;BME280;36598;46.054;11.130;2023-04-06T00:08:51;99441.94;;;7.61;43.79
50636;BME280;36598;46.054;11.130;2023-04-06T00:11:17;99443.56;;;7.76;43.29
50636;BME280;36598;46.054;11.130;2023-04-06T00:13:42;99438.88;;;7.84;43.36
50636;BME280;36598;46.054;11.130;2023-04-06T00:16:07;99430.22;;;7.86;43.36
50636;BME280;36598;46.054;11.130;2023-04-06T00:18:33;99445.94;;;7.82;44.08
50636;BME280;36598;46.054;11.130;2023-04-06T00:20:58;99433.75;;;8.00;43.66
50636;BME280;36598;46.054;11.130;2023-04-06T00:23:23;99435.75;;;8.21;43.47
50636;BME280;36598;46.054;11.130;2023-04-06T00:25:49;99431.03;;;8.29;43.22
50636;BME280;36598;46.054;11.130;2023-04-06T00:28:14;99439.69;;;8.13;43.57
50636;BME280;36598;46.054;11.130;2023-04-06T00:30:40;99440.47;;;8.17;43.15
50636;BME280;36598;46.054;11.130;2023-04-06T00:33:05;99434.59;;;8.22;43.77
50636;BME280;36598;46.054;11.130;2023-04-06T00:35:31;99434.22;;;8.49;43.15
50636;BME280;36598;46.054;11.130;2023-04-06T00:37:56;99431.47;;;8.38;43.23
50636;BME280;36598;46.054;11.130;2023-04-06T00:40:21;99435.72;;;7.86;44.37
50636;BME280;36598;46.054;11.130;2023-04-06T00:42:47;99438.16;;;8.26;43.71
50636;BME280;36598;46.054;11.130;2023-04-06T00:45:12;99433.38;;;7.98;43.43
50636;BME280;36598;46.054;11.130;2023-04-06T00:47:37;99433.00;;;8.07;43.62
50636;BME280;36598;46.054;11.130;2023-04-06T00:50:03;99428.69;;;8.20;43.54
50636;BME280;36598;46.054;11.130;2023-04-06T00:52:28;99433.38;;;8.31;43.36
50636;BME280;36598;46.054;11.130;2023-04-06T00:54:53;99424.75;;;8.39;42.95
50636;BME280;36598;46.054;11.130;2023-04-06T00:57:19;99425.13;;;7.98;44.38
50636;BME280;36598;46.054;11.130;2023-04-06T00:59:44;99429.44;;;8.03;44.41
50636;BME280;36598;46.054;11.130;2023-04-06T01:02:09;99426.59;;;7.60;44.99
50636;BME280;36598;46.054;11.130;2023-04-06T01:04:35;99433.06;;;7.06;46.20
50636;BME280;36598;46.054;11.130;2023-04-06T01:07:00;99437.56;;;7.42;44.88
50636;BME280;36598;46.054;11.130;2023-04-06T01:09:29;99425.34;;;7.33;43.58
50636;BME280;36598;46.054;11.130;2023-04-06T01:11:57;99426.88;;;7.26;43.56
50636;BME280;36598;46.054;11.130;2023-04-06T01:14:23;99425.38;;;7.47;42.91
50636;BME280;36598;46.054;11.130;2023-04-06T01:16:48;99426.50;;;7.35;42.93
50636;BME280;36598;46.054;11.130;2023-04-06T01:19:14;99425.34;;;7.40;43.77
50636;BME280;36598;46.054;11.130;2023-04-06T01:21:39;99430.56;;;7.63;43.83
50636;BME280;36598;46.054;11.130;2023-04-06T01:24:05;99416.81;;;7.88;44.02
50636;BME280;36598;46.054;11.130;2023-04-06T01:26:31;99412.91;;;7.85;44.21
50636;BME280;36598;46.054;11.130;2023-04-06T01:28:57;99426.28;;;7.94;43.79
50636;BME280;36598;46.054;11.130;2023-04-06T01:31:22;99428.19;;;7.68;43.94
50636;BME280;36598;46.054;11.130;2023-04-06T01:33:48;99419.22;;;7.93;43.14
50636;BME280;36598;46.054;11.130;2023-04-06T01:36:13;99420.41;;;8.06;42.57
50636;BME280;36598;46.054;11.130;2023-04-06T01:38:39;99418.81;;;8.01;42.72
50636;BME280;36598;46.054;11.130;2023-04-06T01:41:04;99416.81;;;7.88;43.18
50636;BME280;36598;46.054;11.130;2023-04-06T01:43:30;99411.28;;;7.73;44.11
50636;BME280;36598;46.054;11.130;2023-04-06T01:45:55;99425.84;;;7.63;44.32
50636;BME280;36598;46.054;11.130;2023-04-06T01:48:20;99429.31;;;7.53;44.29
50636;BME280;36598;46.054;11.130;2023-04-06T01:50:46;99425.34;;;7.33;44.35
50636;BME280;36598;46.054;11.130;2023-04-06T01:53:11;99426.06;;;7.15;44.73
50636;BME280;36598;46.054;11.130;2023-04-06T01:55:37;99427.44;;;6.84;45.46
50636;BME280;36598;46.054;11.130;2023-04-06T01:58:02;99428.31;;;6.99;45.20
50636;BME280;36598;46.054;11.130;2023-04-06T02:00:27;99432.28;;;7.05;45.52
50636;BME280;36598;46.054;11.130;2023-04-06T02:02:52;99432.28;;;7.09;45.35
50636;BME280;36598;46.054;11.130;2023-04-06T02:05:19;99430.97;;;6.26;46.73
50636;BME280;36598;46.054;11.130;2023-04-06T02:07:44;99434.25;;;6.46;45.74
50636;BME280;36598;46.054;11.130;2023-04-06T02:10:13;99435.19;;;6.64;45.69
50636;BME280;36598;46.054;11.130;2023-04-06T02:12:38;99441.13;;;6.73;45.75
50636;BME280;36598;46.054;11.130;2023-04-06T02:15:04;99434.81;;;6.69;46.03
50636;BME280;36598;46.054;11.130;2023-04-06T02:17:29;99439.28;;;6.92;45.35
50636;BME280;36598;46.054;11.130;2023-04-06T02:19:55;99438.44;;;6.84;45.57
50636;BME280;36598;46.054;11.130;2023-04-06T02:22:20;99430.28;;;7.02;45.03
50636;BME280;36598;46.054;11.130;2023-04-06T02:24:45;99442.56;;;7.19;45.06
50636;BME280;36598;46.054;11.130;2023-04-06T02:27:11;99431.88;;;7.03;45.25
50636;BME280;36598;46.054;11.130;2023-04-06T02:29:37;99446.28;;;6.78;45.98
50636;BME280;36598;46.054;11.130;2023-04-06T02:32:02;99444.38;;;6.93;45.49
50636;BME280;36598;46.054;11.130;2023-04-06T02:34:27;99431.44;;;6.94;45.44
50636;BME280;36598;46.054;11.130;2023-04-06T02:36:54;99443.16;;;6.84;45.48
50636;BME280;36598;46.054;11.130;2023-04-06T02:39:20;99443.22;;;6.91;45.55
50636;BME280;36598;46.054;11.130;2023-04-06T02:41:45;99447.00;;;6.72;46.07
50636;BME280;36598;46.054;11.130;2023-04-06T02:44:10;99441.59;;;6.83;45.53
50636;BME280;36598;46.054;11.130;2023-04-06T02:46:36;99439.09;;;6.63;46.03
50636;BME280;36598;46.054;11.130;2023-04-06T02:49:01;99444.22;;;6.65;45.91
50636;BME280;36598;46.054;11.130;2023-04-06T02:51:26;99454.69;;;6.48;45.54
50636;BME280;36598;46.054;11.130;2023-04-06T02:53:52;99452.44;;;6.61;45.36
50636;BME280;36598;46.054;11.130;2023-04-06T02:56:17;99452.47;;;6.65;45.46
50636;BME280;36598;46.054;11.130;2023-04-06T02:58:42;99455.59;;;6.63;45.29
50636;BME280;36598;46.054;11.130;2023-04-06T03:01:07;99458.66;;;6.51;46.04
50636;BME280;36598;46.054;11.130;2023-04-06T03:03:33;99446.84;;;6.47;45.69
50636;BME280;36598;46.054;11.130;2023-04-06T03:05:58;99458.69;;;6.58;45.63
50636;BME280;36598;46.054;11.130;2023-04-06T03:08:24;99455.09;;;6.47;45.47
50636;BME280;36598;46.054;11.130;2023-04-06T03:10:50;99462.44;;;6.36;46.00
50636;BME280;36598;46.054;11.130;2023-04-06T03:13:15;99453.78;;;6.30;45.72
50636;BME280;36598;46.054;11.130;2023-04-06T03:15:41;99457.94;;;6.13;46.56
50636;BME280;36598;46.054;11.130;2023-04-06T03:18:06;99453.22;;;6.14;45.90
50636;BME280;36598;46.054;11.130;2023-04-06T03:20:31;99453.69;;;6.23;45.94
50636;BME280;36598;46.054;11.130;2023-04-06T03:22:56;99458.75;;;6.17;46.68
50636;BME280;36598;46.054;11.130;2023-04-06T03:25:22;99459.22;;;6.26;45.64
50636;BME280;36598;46.054;11.130;2023-04-06T03:27:47;99455.31;;;6.27;46.63
50636;BME280;36598;46.054;11.130;2023-04-06T03:30:12;99454.31;;;6.06;47.19
50636;BME280;36598;46.054;11.130;2023-04-06T03:32:38;99462.53;;;6.02;46.78
50636;BME280;36598;46.054;11.130;2023-04-06T03:35:03;99455.38;;;6.35;46.19
50636;BME280;36598;46.054;11.130;2023-04-06T03:37:29;99468.66;;;6.25;46.00
50636;BME280;36598;46.054;11.130;2023-04-06T03:39:54;99468.56;;;6.18;45.95
50636;BME280;36598;46.054;11.130;2023-04-06T03:42:19;99469.28;;;6.12;46.28
50636;BME280;36598;46.054;11.130;2023-04-06T03:44:44;99461.03;;;6.08;45.90
50636;BME280;36598;46.054;11.130;2023-04-06T03:47:10;99465.16;;;6.32;45.70
50636;BME280;36598;46.054;11.130;2023-04-06T03:49:35;99465.91;;;5.88;47.02
50636;BME280;36598;46.054;11.130;2023-04-06T03:52:00;99465.69;;;6.04;46.75
50636;BME280;36598;46.054;11.130;2023-04-06T03:54:26;99476.50;;;5.90;46.48
50636;BME280;36598;46.054;11.130;2023-04-06T03:56:51;99475.91;;;5.73;47.35
50636;BME280;36598;46.054;11.130;2023-04-06T03:59:16;99471.00;;;5.56;47.49
50636;BME280;36598;46.054;11.130;2023-04-06T04:01:42;99482.91;;;5.67;47.11
50636;BME280;36598;46.054;11.130;2023-04-06T04:04:07;99480.03;;;5.53;47.39
50636;BME280;36598;46.054;11.130;2023-04-06T04:06:32;99468.78;;;5.65;46.93
50636;BME280;36598;46.054;11.130;2023-04-06T04:08:57;99474.00;;;5.77;46.57
50636;BME280;36598;46.054;11.130;2023-04-06T04:11:23;99478.00;;;5.50;47.82
50636;BME280;36598;46.054;11.130;2023-04-06T04:13:48;99472.63;;;5.57;47.24
50636;BME280;36598;46.054;11.130;2023-04-06T04:16:13;99474.84;;;5.48;47.80
50636;BME280;36598;46.054;11.130;2023-04-06T04:18:39;99481.34;;;5.66;47.33
50636;BME280;36598;46.054;11.130;2023-04-06T04:21:04;99480.13;;;5.64;47.29
50636;BME280;36598;46.054;11.130;2023-04-06T04:23:30;99485.00;;;5.44;47.66
50636;BME280;36598;46.054;11.130;2023-04-06T04:25:55;99482.66;;;5.46;47.41
50636;BME280;36598;46.054;11.130;2023-04-06T04:28:20;99474.66;;;5.34;47.11
50636;BME280;36598;46.054;11.130;2023-04-06T04:30:46;99485.78;;;5.44;47.67
50636;BME280;36598;46.054;11.130;2023-04-06T04:33:11;99484.66;;;5.49;47.13
50636;BME280;36598;46.054;11.130;2023-04-06T04:35:36;99489.16;;;5.64;47.26
50636;BME280;36598;46.054;11.130;2023-04-06T04:38:02;99488.31;;;5.60;47.09
50636;BME280;36598;46.054;11.130;2023-04-06T04:40:27;99483.22;;;5.59;47.21
50636;BME280;36598;46.054;11.130;2023-04-06T04:42:52;99494.03;;;5.48;47.08
50636;BME280;36598;46.054;11.130;2023-04-06T04:45:17;99489.91;;;5.61;47.52
50636;BME280;36598;46.054;11.130;2023-04-06T04:47:43;99488.69;;;5.59;47.23
50636;BME280;36598;46.054;11.130;2023-04-06T04:50:08;99491.31;;;5.48;47.08
50636;BME280;36598;46.054;11.130;2023-04-06T04:52:34;99492.75;;;5.38;47.96
50636;BME280;36598;46.054;11.130;2023-04-06T04:54:59;99489.16;;;5.64;47.02
50636;BME280;36598;46.054;11.130;2023-04-06T04:57:24;99493.06;;;5.63;46.65
50636;BME280;36598;46.054;11.130;2023-04-06T04:59:49;99496.34;;;5.76;46.51
50636;BME280;36598;46.054;11.130;2023-04-06T05:02:16;99500.06;;;5.57;47.26
50636;BME280;36598;46.054;11.130;2023-04-06T05:04:41;99492.31;;;5.33;47.74
50636;BME280;36598;46.054;11.130;2023-04-06T05:07:07;99490.81;;;5.39;47.35
50636;BME280;36598;46.054;11.130;2023-04-06T05:09:32;99496.94;;;5.59;47.40
50636;BME280;36598;46.054;11.130;2023-04-06T05:11:58;99497.63;;;5.52;47.93
50636;BME280;36598;46.054;11.130;2023-04-06T05:14:24;99500.28;;;5.75;47.65
50636;BME280;36598;46.054;11.130;2023-04-06T05:16:49;99496.56;;;5.94;47.33
50636;BME280;36598;46.054;11.130;2023-04-06T05:19:15;99495.00;;;5.93;47.75
50636;BME280;36598;46.054;11.130;2023-04-06T05:21:40;99494.47;;;6.17;47.04
50636;BME280;36598;46.054;11.130;2023-04-06T05:24:06;99497.84;;;6.44;46.57
50636;BME280;36598;46.054;11.130;2023-04-06T05:26:32;99502.09;;;6.35;46.63
50636;BME280;36598;46.054;11.130;2023-04-06T05:28:57;99498.00;;;6.62;46.19
50636;BME280;36598;46.054;11.130;2023-04-06T05:31:22;99501.81;;;6.47;46.70
50636;BME280;36598;46.054;11.130;2023-04-06T05:33:48;99499.34;;;6.35;46.84
50636;BME280;36598;46.054;11.130;2023-04-06T05:36:13;99506.13;;;6.48;46.66
50636;BME280;36598;46.054;11.130;2023-04-06T05:38:39;99504.25;;;5.81;48.30
50636;BME280;36598;46.054;11.130;2023-04-06T05:41:05;99510.56;;;5.85;48.41
50636;BME280;36598;46.054;11.130;2023-04-06T05:43:30;99505.00;;;6.52;46.46
50636;BME280;36598;46.054;11.130;2023-04-06T05:45:55;99508.13;;;7.06;46.17
50636;BME280;36598;46.054;11.130;2023-04-06T05:48:21;99517.69;;;7.26;45.45
50636;BME280;36598;46.054;11.130;2023-04-06T05:50:49;99510.69;;;7.40;45.13
50636;BME280;36598;46.054;11.130;2023-04-06T05:53:18;99509.97;;;7.50;45.00
50636;BME280;36598;46.054;11.130;2023-04-06T05:55:43;99515.75;;;7.31;45.76
50636;BME280;36598;46.054;11.130;2023-04-06T05:58:09;99519.19;;;7.97;44.35
50636;BME280;36598;46.054;11.130;2023-04-06T06:00:34;99515.91;;;7.66;44.92
50636;BME280;36598;46.054;11.130;2023-04-06T06:03:00;99529.06;;;8.05;44.24
50636;BME280;36598;46.054;11.130;2023-04-06T06:05:25;99524.31;;;8.02;43.94
50636;BME280;36598;46.054;11.130;2023-04-06T06:07:51;99521.25;;;8.39;42.93
50636;BME280;36598;46.054;11.130;2023-04-06T06:10:17;99524.53;;;7.50;44.77
50636;BME280;36598;46.054;11.130;2023-04-06T06:12:42;99529.06;;;8.05;43.91
50636;BME280;36598;46.054;11.130;2023-04-06T06:15:07;99528.38;;;8.44;42.75
50636;BME280;36598;46.054;11.130;2023-04-06T06:17:33;99535.81;;;8.36;42.73
50636;BME280;36598;46.054;11.130;2023-04-06T06:19:58;99531.16;;;8.65;41.95
50636;BME280;36598;46.054;11.130;2023-04-06T06:22:23;99528.19;;;11.01;37.61
50636;BME280;36598;46.054;11.130;2023-04-06T06:24:48;99521.25;;;12.50;34.55
50636;BME280;36598;46.054;11.130;2023-04-06T06:27:15;99518.75;;;13.06;33.93
50636;BME280;36598;46.054;11.130;2023-04-06T06:29:40;99519.56;;;13.50;32.20
50636;BME280;36598;46.054;11.130;2023-04-06T06:32:06;99517.88;;;14.48;30.70
50636;BME280;36598;46.054;11.130;2023-04-06T06:34:31;99515.28;;;15.94;28.73
50636;BME280;36598;46.054;11.130;2023-04-06T06:36:56;99514.88;;;15.66;28.93
50636;BME280;36598;46.054;11.130;2023-04-06T06:39:22;99506.28;;;16.28;28.00
50636;BME280;36598;46.054;11.130;2023-04-06T06:41:47;99507.91;;;16.00;27.85
50636;BME280;36598;46.054;11.130;2023-04-06T06:44:12;99514.78;;;16.24;27.84
50636;BME280;36598;46.054;11.130;2023-04-06T06:46:37;99514.78;;;16.37;27.51
50636;BME280;36598;46.054;11.130;2023-04-06T06:49:03;99505.72;;;16.20;27.31
50636;BME280;36598;46.054;11.130;2023-04-06T06:51:28;99498.31;;;17.82;25.79
50636;BME280;36598;46.054;11.130;2023-04-06T06:53:53;99510.03;;;16.98;26.19
50636;BME280;36598;46.054;11.130;2023-04-06T06:56:19;99514.06;;;17.32;25.71
50636;BME280;36598;46.054;11.130;2023-04-06T06:58:44;99500.22;;;17.72;25.18
50636;BME280;36598;46.054;11.130;2023-04-06T07:01:10;99499.44;;;16.93;26.45
50636;BME280;36598;46.054;11.130;2023-04-06T07:03:35;99505.56;;;18.01;24.51
50636;BME280;36598;46.054;11.130;2023-04-06T07:06:00;99497.22;;;17.79;24.66
50636;BME280;36598;46.054;11.130;2023-04-06T07:08:25;99501.31;;;17.87;24.85
50636;BME280;36598;46.054;11.130;2023-04-06T07:10:52;99502.53;;;17.86;24.80
50636;BME280;36598;46.054;11.130;2023-04-06T07:13:18;99493.03;;;19.78;22.37
50636;BME280;36598;46.054;11.130;2023-04-06T07:15:47;99488.44;;;18.30;23.63
50636;BME280;36598;46.054;11.130;2023-04-06T07:18:13;99491.97;;;18.12;24.42
50636;BME280;36598;46.054;11.130;2023-04-06T07:20:38;99484.66;;;20.20;21.98
50636;BME280;36598;46.054;11.130;2023-04-06T07:23:03;99479.78;;;19.69;22.75
50636;BME280;36598;46.054;11.130;2023-04-06T07:25:29;99479.75;;;21.59;20.94
50636;BME280;36598;46.054;11.130;2023-04-06T07:27:54;99483.81;;;19.87;21.81
50636;BME280;36598;46.054;11.130;2023-04-06T07:30:20;99480.00;;;20.84;21.18
50636;BME280;36598;46.054;11.130;2023-04-06T07:32:46;99482.63;;;20.21;21.39
50636;BME280;36598;46.054;11.130;2023-04-06T07:35:12;99470.44;;;22.12;19.59
50636;BME280;36598;46.054;11.130;2023-04-06T07:37:37;99481.94;;;19.93;22.24
50636;BME280;36598;46.054;11.130;2023-04-06T07:40:03;99471.63;;;20.98;21.14
50636;BME280;36598;46.054;11.130;2023-04-06T07:42:28;99467.81;;;22.23;20.12
50636;BME280;36598;46.054;11.130;2023-04-06T07:44:53;99469.44;;;20.36;21.04
50636;BME280;36598;46.054;11.130;2023-04-06T07:47:19;99470.72;;;21.16;20.40
50636;BME280;36598;46.054;11.130;2023-04-06T07:49:44;99466.28;;;20.10;21.57
50636;BME280;36598;46.054;11.130;2023-04-06T07:52:10;99462.59;;;21.72;20.38
50636;BME280;36598;46.054;11.130;2023-04-06T07:54:35;99469.66;;;19.35;21.65
50636;BME280;36598;46.054;11.130;2023-04-06T07:57:00;99461.69;;;21.27;20.37
50636;BME280;36598;46.054;11.130;2023-04-06T07:59:26;99461.44;;;20.11;21.37
50636;BME280;36598;46.054;11.130;2023-04-06T08:01:51;99464.50;;;18.79;22.39
50636;BME280;36598;46.054;11.130;2023-04-06T08:04:16;99455.84;;;20.01;21.45
50636;BME280;36598;46.054;11.130;2023-04-06T08:06:42;99460.28;;;20.60;20.97
50636;BME280;36598;46.054;11.130;2023-04-06T08:09:07;99458.16;;;19.15;22.16
50636;BME280;36598;46.054;11.130;2023-04-06T08:11:32;99445.47;;;20.26;20.99
50636;BME280;36598;46.054;11.130;2023-04-06T08:13:57;99452.69;;;19.39;22.31
50636;BME280;36598;46.054;11.130;2023-04-06T08:16:23;99451.25;;;19.43;22.17
50636;BME280;36598;46.054;11.130;2023-04-06T08:18:49;99443.53;;;18.52;23.24
50636;BME280;36598;46.054;11.130;2023-04-06T08:21:14;99439.78;;;20.68;20.72
50636;BME280;36598;46.054;11.130;2023-04-06T08:23:39;99436.22;;;21.45;20.14
50636;BME280;36598;46.054;11.130;2023-04-06T08:26:05;99433.47;;;21.21;20.45
50636;BME280;36598;46.054;11.130;2023-04-06T08:28:30;99432.72;;;22.24;19.67
50636;BME280;36598;46.054;11.130;2023-04-06T08:30:55;99414.88;;;22.13;19.60
50636;BME280;36598;46.054;11.130;2023-04-06T08:33:21;99419.81;;;22.73;18.67
50636;BME280;36598;46.054;11.130;2023-04-06T08:35:46;99414.22;;;21.73;19.75
50636;BME280;36598;46.054;11.130;2023-04-06T08:38:11;99417.59;;;20.13;21.62
50636;BME280;36598;46.054;11.130;2023-04-06T08:40:37;99415.41;;;21.28;20.36
50636;BME280;36598;46.054;11.130;2023-04-06T08:43:03;99413.31;;;22.47;19.55
50636;BME280;36598;46.054;11.130;2023-04-06T08:45:29;99423.31;;;21.83;20.35
50636;BME280;36598;46.054;11.130;2023-04-06T08:47:54;99417.03;;;20.81;21.50
50636;BME280;36598;46.054;11.130;2023-04-06T08:50:22;99421.88;;;20.81;21.08
50636;BME280;36598;46.054;11.130;2023-04-06T08:52:49;99407.31;;;21.89;19.58
50636;BME280;36598;46.054;11.130;2023-04-06T08:55:14;99406.59;;;21.20;20.14
50636;BME280;36598;46.054;11.130;2023-04-06T08:57:40;99404.34;;;19.35;21.76
50636;BME280;36598;46.054;11.130;2023-04-06T09:00:06;99396.59;;;18.74;23.03
50636;BME280;36598;46.054;11.130;2023-04-06T09:02:32;99397.81;;;17.74;24.82
50636;BME280;36598;46.054;11.130;2023-04-06T09:04:58;99392.69;;;19.09;23.67
50636;BME280;36598;46.054;11.130;2023-04-06T09:07:24;99401.56;;;15.43;26.90
50636;BME280;36598;46.054;11.130;2023-04-06T09:09:49;99387.06;;;17.73;24.97
50636;BME280;36598;46.054;11.130;2023-04-06T09:12:26;99381.00;;;18.73;23.99
50636;BME280;36598;46.054;11.130;2023-04-06T09:14:51;99376.19;;;19.20;23.43
50636;BME280;36598;46.054;11.130;2023-04-06T09:17:20;99368.09;;;18.94;24.47
50636;BME280;36598;46.054;11.130;2023-04-06T09:19:46;99378.06;;;19.84;22.74
50636;BME280;36598;46.054;11.130;2023-04-06T09:22:12;99359.09;;;19.69;22.13
50636;BME280;36598;46.054;11.130;2023-04-06T09:24:47;99372.06;;;19.39;22.66
50636;BME280;36598;46.054;11.130;2023-04-06T09:27:13;99362.53;;;19.64;23.70
50636;BME280;36598;46.054;11.130;2023-04-06T09:29:38;99353.28;;;19.03;23.46
50636;BME280;36598;46.054;11.130;2023-04-06T09:32:04;99351.63;;;19.66;22.08
50636;BME280;36598;46.054;11.130;2023-04-06T09:34:30;99348.13;;;19.20;22.61
50636;BME280;36598;46.054;11.130;2023-04-06T09:36:55;99344.44;;;19.65;22.14
50636;BME280;36598;46.054;11.130;2023-04-06T09:39:21;99350.00;;;18.59;23.45
50636;BME280;36598;46.054;11.130;2023-04-06T09:41:49;99342.44;;;19.66;22.79
50636;BME280;36598;46.054;11.130;2023-04-06T09:44:15;99337.78;;;19.87;21.84
50636;BME280;36598;46.054;11.130;2023-04-06T09:46:41;99332.59;;;19.52;21.99
50636;BME280;36598;46.054;11.130;2023-04-06T09:49:07;99332.09;;;18.65;23.01
50636;BME280;36598;46.054;11.130;2023-04-06T09:51:36;99322.31;;;19.58;21.73
50636;BME280;36598;46.054;11.130;2023-04-06T09:54:02;99321.69;;;19.63;22.05
50636;BME280;36598;46.054;11.130;2023-04-06T09:56:41;99318.09;;;18.56;23.64
50636;BME280;36598;46.054;11.130;2023-04-06T09:59:13;99310.22;;;18.05;22.91
50636;BME280;36598;46.054;11.130;2023-04-06T10:01:38;99299.00;;;19.34;22.75
50636;BME280;36598;46.054;11.130;2023-04-06T10:06:38;99296.13;;;20.18;20.35
50636;BME280;36598;46.054;11.130;2023-04-06T10:09:04;99284.63;;;20.55;20.31
50636;BME280;36598;46.054;11.130;2023-04-06T10:11:32;99283.06;;;18.70;21.80
50636;BME280;36598;46.054;11.130;2023-04-06T10:13:58;99278.53;;;20.33;20.58
50636;BME280;36598;46.054;11.130;2023-04-06T10:16:24;99275.72;;;18.91;22.25
50636;BME280;36598;46.054;11.130;2023-04-06T10:18:51;99276.34;;;18.21;21.90
50636;BME280;36598;46.054;11.130;2023-04-06T10:21:19;99263.44;;;18.51;21.47
50636;BME280;36598;46.054;11.130;2023-04-06T10:23:49;99262.19;;;18.52;20.91
50636;BME280;36598;46.054;11.130;2023-04-06T10:26:16;99257.41;;;17.26;21.47
50636;BME280;36598;46.054;11.130;2023-04-06T10:28:42;99256.22;;;17.46;21.75
50636;BME280;36598;46.054;11.130;2023-04-06T10:31:08;99251.44;;;18.60;21.51
50636;BME280;36598;46.054;11.130;2023-04-06T10:33:34;99254.31;;;19.21;20.26
50636;BME280;36598;46.054;11.130;2023-04-06T10:36:12;99244.28;;;18.04;20.93
50636;BME280;36598;46.054;11.130;2023-04-06T10:38:38;99234.59;;;18.88;19.52
50636;BME280;36598;46.054;11.130;2023-04-06T10:41:04;99233.69;;;18.45;19.70
50636;BME280;36598;46.054;11.130;2023-04-06T10:43:32;99235.13;;;18.77;20.24
50636;BME280;36598;46.054;11.130;2023-04-06T10:45:59;99233.84;;;18.87;19.00
50636;BME280;36598;46.054;11.130;2023-04-06T10:48:25;99239.75;;;19.41;19.31
50636;BME280;36598;46.054;11.130;2023-04-06T10:51:01;99234.94;;;19.74;18.56
50636;BME280;36598;46.054;11.130;2023-04-06T10:53:26;99226.22;;;19.30;17.84
50636;BME280;36598;46.054;11.130;2023-04-06T10:55:52;99219.63;;;19.42;18.66
50636;BME280;36598;46.054;11.130;2023-04-06T10:58:19;99215.56;;;19.76;17.92
50636;BME280;36598;46.054;11.130;2023-04-06T11:00:45;99216.66;;;19.79;17.67
50636;BME280;36598;46.054;11.130;2023-04-06T11:03:10;99211.50;;;20.01;16.72
50636;BME280;36598;46.054;11.130;2023-04-06T11:05:35;99203.47;;;19.70;17.18
50636;BME280;36598;46.054;11.130;2023-04-06T11:08:01;99208.19;;;19.55;17.50
50636;BME280;36598;46.054;11.130;2023-04-06T11:10:26;99193.56;;;19.51;17.54
50636;BME280;36598;46.054;11.130;2023-04-06T11:12:55;99190.44;;;20.21;17.58
50636;BME280;36598;46.054;11.130;2023-04-06T11:15:20;99187.59;;;19.82;17.39
50636;BME280;36598;46.054;11.130;2023-04-06T11:17:46;99172.94;;;20.26;17.00
50636;BME280;36598;46.054;11.130;2023-04-06T11:20:11;99169.72;;;20.33;16.74
50636;BME280;36598;46.054;11.130;2023-04-06T11:22:47;99157.53;;;20.36;16.38
50636;BME280;36598;46.054;11.130;2023-04-06T11:25:15;99159.34;;;19.86;16.51
50636;BME280;36598;46.054;11.130;2023-04-06T11:27:42;99155.78;;;19.85;16.81
50636;BME280;36598;46.054;11.130;2023-04-06T11:30:07;99155.00;;;19.61;16.91
50636;BME280;36598;46.054;11.130;2023-04-06T11:32:40;99145.25;;;19.47;17.31
50636;BME280;36598;46.054;11.130;2023-04-06T11:35:07;99133.72;;;19.93;16.96
50636;BME280;36598;46.054;11.130;2023-04-06T11:37:32;99129.06;;;19.90;16.86
50636;BME280;36598;46.054;11.130;2023-04-06T11:39:58;99126.84;;;19.94;17.10
50636;BME280;36598;46.054;11.130;2023-04-06T11:42:27;99120.09;;;20.00;16.91
50636;BME280;36598;46.054;11.130;2023-04-06T11:44:56;99124.94;;;20.00;16.96
50636;BME280;36598;46.054;11.130;2023-04-06T11:47:36;99115.44;;;20.12;17.23
50636;BME280;36598;46.054;11.130;2023-04-06T11:50:12;99122.84;;;19.38;17.70
50636;BME280;36598;46.054;11.130;2023-04-06T11:52:38;99116.69;;;19.96;17.46
50636;BME280;36598;46.054;11.130;2023-04-06T11:55:11;99121.19;;;19.55;17.06
50636;BME280;36598;46.054;11.130;2023-04-06T11:57:37;99116.66;;;19.34;17.46
50636;BME280;36598;46.054;11.130;2023-04-06T12:00:02;99117.22;;;17.74;18.19
50636;BME280;36598;46.054;11.130;2023-04-06T12:02:27;99111.28;;;18.09;17.96
50636;BME280;36598;46.054;11.130;2023-04-06T12:04:53;99107.72;;;17.81;18.42
50636;BME280;36598;46.054;11.130;2023-04-06T12:07:18;99095.56;;;18.02;18.52
50636;BME280;36598;46.054;11.130;2023-04-06T12:09:43;99085.16;;;17.93;18.96
50636;BME280;36598;46.054;11.130;2023-04-06T12:12:09;99096.78;;;18.19;19.06
50636;BME280;36598;46.054;11.130;2023-04-06T12:14:34;99096.41;;;18.63;18.49
50636;BME280;36598;46.054;11.130;2023-04-06T12:17:00;99085.91;;;17.48;19.17
50636;BME280;36598;46.054;11.130;2023-04-06T12:19:25;99082.81;;;17.73;19.18
50636;BME280;36598;46.054;11.130;2023-04-06T12:21:53;99071.97;;;17.75;19.41
50636;BME280;36598;46.054;11.130;2023-04-06T12:24:22;99073.16;;;18.20;19.18
50636;BME280;36598;46.054;11.130;2023-04-06T12:26:48;99066.63;;;18.14;19.23
50636;BME280;36598;46.054;11.130;2023-04-06T12:29:13;99069.72;;;18.25;19.11
50636;BME280;36598;46.054;11.130;2023-04-06T12:31:38;99076.44;;;17.64;19.30
50636;BME280;36598;46.054;11.130;2023-04-06T12:34:05;99067.31;;;17.82;19.38
50636;BME280;36598;46.054;11.130;2023-04-06T12:36:31;99061.03;;;17.50;19.69
50636;BME280;36598;46.054;11.130;2023-04-06T12:38:57;99060.59;;;17.97;19.25
50636;BME280;36598;46.054;11.130;2023-04-06T12:41:22;99051.34;;;16.96;20.01
50636;BME280;36598;46.054;11.130;2023-04-06T12:43:48;99058.38;;;17.28;19.78
50636;BME280;36598;46.054;11.130;2023-04-06T12:46:14;99052.66;;;17.32;20.36
50636;BME280;36598;46.054;11.130;2023-04-06T12:48:40;99046.91;;;17.72;19.77
50636;BME280;36598;46.054;11.130;2023-04-06T12:51:06;99042.19;;;18.15;19.03